Time;durP1;ratioP1;P1;durP2;ratioP2;P2;SDS_P1;SDS_P2;PMS_P1;PMS_P2;Temp;Humidity;BMP_temperature;BMP_pressure;BME280_temperature;BME280_humidity;BME280_pressure;Samples;Min_cycle;Max_cycle;Signal;HPM_P1;HPM_P2
2021/05/30 00:01:46;;;;;;;14.23;10.32;;;;;;;15.21;59.39;102980.28;5033724;28;20476;-81
2021/05/30 00:04:12;;;;;;;18.05;10.63;;;;;;;15.18;59.43;102974.97;5033235;28;20033;-82
2021/05/30 00:06:39;;;;;;;18.25;11.38;;;;;;;15.23;59.28;102973.19;5033091;28;20033;-81
2021/05/30 00:09:07;;;;;;;14.95;10.55;;;;;;;15.24;59.40;102974.94;5033415;28;20049;-82
2021/05/30 00:11:36;;;;;;;13.70;10.25;;;;;;;15.24;59.36;102974.03;5033063;28;20030;-81
2021/05/30 00:14:04;;;;;;;13.95;9.75;;;;;;;15.23;59.39;102972.25;5033349;28;20029;-81
2021/05/30 00:16:31;;;;;;;14.32;10.18;;;;;;;15.10;59.68;102972.31;5033124;28;20104;-81
2021/05/30 00:19:00;;;;;;;15.55;9.95;;;;;;;15.17;59.45;102973.22;5033451;28;20120;-81
2021/05/30 00:21:27;;;;;;;17.17;11.32;;;;;;;15.08;59.64;102974.13;5033217;28;20029;-81
2021/05/30 00:23:54;;;;;;;16.23;10.60;;;;;;;15.08;59.62;102974.13;5033153;28;20021;-81
2021/05/30 00:26:20;;;;;;;16.52;10.32;;;;;;;15.01;59.73;102967.03;5033119;28;20384;-81
2021/05/30 00:28:47;;;;;;;16.17;11.07;;;;;;;14.95;59.92;102967.06;5032716;28;20022;-80
2021/05/30 00:31:14;;;;;;;16.80;9.55;;;;;;;14.98;59.62;102969.75;5033467;28;20030;-81
2021/05/30 00:33:40;;;;;;;13.45;9.85;;;;;;;14.88;60.02;102971.56;5032756;28;20109;-81
2021/05/30 00:36:07;;;;;;;14.75;10.13;;;;;;;14.81;59.85;102970.69;5033058;28;20022;-81
2021/05/30 00:38:34;;;;;;;14.10;9.68;;;;;;;14.78;59.68;102970.72;5033009;28;20393;-81
2021/05/30 00:41:01;;;;;;;16.85;9.98;;;;;;;14.71;59.80;102968.94;5033066;28;20061;-81
2021/05/30 00:43:27;;;;;;;16.95;10.13;;;;;;;14.63;60.08;102966.28;5033411;28;20053;-81
2021/05/30 00:45:54;;;;;;;13.88;9.75;;;;;;;14.59;59.72;102971.63;5032764;28;20030;-81
2021/05/30 00:48:21;;;;;;;15.57;9.20;;;;;;;14.56;60.04;102978.72;5033061;28;20112;-81
2021/05/30 00:50:47;;;;;;;13.40;9.15;;;;;;;14.57;59.96;102971.63;5032997;28;20017;-80
2021/05/30 00:53:17;;;;;;;16.27;9.68;;;;;;;14.66;59.38;102976.09;5033132;28;20037;-81
2021/05/30 00:55:44;;;;;;;9.27;7.63;;;;;;;14.63;59.54;102971.59;5032900;28;20411;-81
2021/05/30 00:58:11;;;;;;;15.20;9.25;;;;;;;14.58;59.71;102973.41;5032485;28;20028;-81
2021/05/30 01:00:37;;;;;;;14.48;8.35;;;;;;;14.59;59.46;102974.28;5032808;28;20037;-81
2021/05/30 01:03:04;;;;;;;14.35;10.40;;;;;;;14.59;59.83;102975.16;5032675;28;20043;-81
2021/05/30 01:05:31;;;;;;;14.18;9.15;;;;;;;14.59;59.15;102975.16;5035727;28;20083;-81
2021/05/30 01:07:57;;;;;;;13.82;9.35;;;;;;;14.50;59.58;102980.53;5036735;28;20060;-82
2021/05/30 01:10:34;;;;;;;15.98;9.48;;;;;;;14.56;58.99;102981.38;5036849;28;20369;-81
2021/05/30 01:13:02;;;;;;;10.98;8.20;;;;;;;14.53;59.24;102976.06;5036850;28;20034;-81
2021/05/30 01:15:31;;;;;;;14.18;8.70;;;;;;;14.53;59.10;102983.19;5036471;28;20071;-81
2021/05/30 01:17:58;;;;;;;9.98;7.60;;;;;;;14.49;59.18;102978.75;5036226;28;20480;-81
2021/05/30 01:20:26;;;;;;;13.60;8.20;;;;;;;14.49;59.49;102973.41;5036422;28;20032;-81
2021/05/30 01:22:53;;;;;;;13.68;8.52;;;;;;;14.48;59.01;102969.88;5037294;28;20025;-82
2021/05/30 01:25:23;;;;;;;13.00;8.35;;;;;;;14.51;59.02;102967.19;5036302;28;20530;-81
2021/05/30 01:27:51;;;;;;;10.27;7.80;;;;;;;14.50;58.85;102972.53;5036501;28;20078;-81
2021/05/30 01:30:20;;;;;;;12.15;8.30;;;;;;;14.51;58.88;102972.50;5036652;28;20029;-82
2021/05/30 01:32:48;;;;;;;13.70;9.05;;;;;;;14.47;59.07;102976.09;5035869;28;20029;-81
2021/05/30 01:35:15;;;;;;;11.93;7.32;;;;;;;14.38;58.98;102970.75;5036112;28;20036;-82
2021/05/30 01:37:42;;;;;;;14.45;9.32;;;;;;;14.40;59.16;102974.31;5034621;28;20025;-81
2021/05/30 01:40:10;;;;;;;11.02;7.70;;;;;;;14.33;59.32;102967.22;5035583;28;20029;-81
2021/05/30 01:42:36;;;;;;;13.98;8.93;;;;;;;14.29;59.01;102970.78;5035546;28;20457;-81
2021/05/30 01:45:04;;;;;;;11.07;7.57;;;;;;;14.28;59.39;102974.34;5036104;28;20055;-82
2021/05/30 01:47:31;;;;;;;12.48;8.80;;;;;;;14.30;58.73;102969.91;5036429;28;20357;-81
2021/05/30 01:49:57;;;;;;;14.75;8.40;;;;;;;14.33;58.69;102972.56;5035959;28;20116;-81
2021/05/30 01:52:24;;;;;;;11.57;8.23;;;;;;;14.38;58.79;102973.44;5035254;28;20469;-81
2021/05/30 01:54:51;;;;;;;11.80;8.15;;;;;;;14.37;58.74;102979.69;5035143;28;20037;-81
2021/05/30 01:57:20;;;;;;;12.20;8.68;;;;;;;14.27;58.93;102967.22;5035282;28;20036;-81
2021/05/30 01:59:46;;;;;;;10.57;8.55;;;;;;;14.32;59.05;102970.81;5035875;28;20034;-82
2021/05/30 02:02:13;;;;;;;13.15;8.38;;;;;;;14.29;58.93;102974.31;5035262;28;20028;-81
2021/05/30 02:04:44;;;;;;;12.32;8.02;;;;;;;14.33;59.47;102976.13;5034845;28;20025;-81
2021/05/30 02:07:12;;;;;;;13.85;9.23;;;;;;;14.34;59.15;102979.66;5035119;28;20025;-82
2021/05/30 02:09:39;;;;;;;12.38;8.27;;;;;;;14.37;59.34;102969.00;5035398;28;20025;-81
2021/05/30 02:12:07;;;;;;;16.15;9.15;;;;;;;14.45;59.38;102966.31;5035416;28;20030;-81
2021/05/30 02:14:35;;;;;;;15.98;9.68;;;;;;;14.45;59.06;102959.19;5035594;28;20033;-82
2021/05/30 02:17:02;;;;;;;16.00;8.90;;;;;;;14.49;59.01;102977.00;5035113;28;20022;-81
2021/05/30 02:19:29;;;;;;;11.05;8.38;;;;;;;14.51;59.25;102972.50;5036245;28;20038;-81
2021/05/30 02:21:55;;;;;;;15.00;8.07;;;;;;;14.57;58.94;102960.94;5035869;28;20021;-81
2021/05/30 02:24:22;;;;;;;16.88;10.02;;;;;;;14.61;59.09;102961.84;5033759;28;20033;-81
2021/05/30 02:26:50;;;;;;;13.75;8.55;;;;;;;14.68;59.31;102958.28;5035275;28;20036;-81
2021/05/30 02:29:37;;;;;;;13.25;8.95;;;;;;;14.85;58.75;102963.56;5035158;28;20385;-81
2021/05/30 02:32:05;;;;;;;15.32;10.35;;;;;;;14.75;58.62;102965.38;5035220;28;20041;-81
2021/05/30 02:34:33;;;;;;;15.73;9.50;;;;;;;14.76;58.75;102961.81;5034491;28;20084;-81
2021/05/30 02:37:00;;;;;;;15.52;10.65;;;;;;;14.78;58.58;102965.38;5034912;28;20026;-82
2021/05/30 02:39:27;;;;;;;11.60;8.52;;;;;;;14.77;58.85;102958.25;5034623;28;20037;-81
2021/05/30 02:41:54;;;;;;;15.25;10.30;;;;;;;14.78;58.84;102961.78;5035043;28;20029;-81
2021/05/30 02:44:21;;;;;;;11.85;9.20;;;;;;;14.76;58.62;102972.47;5034737;28;20030;-81
2021/05/30 02:46:47;;;;;;;13.13;8.38;;;;;;;14.75;58.68;102970.69;5034986;28;20036;-81
2021/05/30 02:49:14;;;;;;;15.93;9.55;;;;;;;14.76;58.44;102967.16;5034730;28;20180;-81
2021/05/30 02:51:41;;;;;;;12.05;9.00;;;;;;;14.75;58.52;102970.69;5035269;28;20091;-81
2021/05/30 02:54:08;;;;;;;15.50;9.65;;;;;;;14.76;58.70;102969.81;5034719;28;20057;-81
2021/05/30 02:56:34;;;;;;;20.13;9.43;;;;;;;14.74;58.74;102968.91;5034857;28;20033;-81
2021/05/30 02:59:01;;;;;;;15.70;9.38;;;;;;;14.77;58.43;102968.94;5032345;28;20033;-81
2021/05/30 03:01:28;;;;;;;14.38;8.95;;;;;;;14.76;58.62;102967.16;5034399;28;20053;-81
2021/05/30 03:03:55;;;;;;;14.68;9.35;;;;;;;14.77;58.38;102968.06;5032749;28;20025;-81
2021/05/30 03:06:24;;;;;;;15.32;9.90;;;;;;;14.77;58.26;102973.38;5034123;28;20045;-81
2021/05/30 03:08:52;;;;;;;15.35;9.82;;;;;;;14.78;58.37;102970.72;5034316;28;20427;-81
2021/05/30 03:11:20;;;;;;;13.27;10.00;;;;;;;14.78;58.32;102972.47;5032785;28;20025;-81
2021/05/30 03:13:47;;;;;;;15.20;9.82;;;;;;;14.79;58.15;102971.56;5034259;28;20116;-81
2021/05/30 03:16:14;;;;;;;16.05;9.75;;;;;;;14.79;57.84;102972.47;5034566;28;20025;-82
2021/05/30 03:18:40;;;;;;;15.45;9.38;;;;;;;14.77;57.92;102968.94;5033849;28;20434;-81
2021/05/30 03:21:07;;;;;;;16.20;9.15;;;;;;;14.78;57.99;102968.03;5034349;28;20025;-82
2021/05/30 03:23:34;;;;;;;16.13;10.43;;;;;;;14.80;58.07;102970.69;5034021;28;20082;-82
2021/05/30 03:26:00;;;;;;;13.07;8.85;;;;;;;14.80;57.91;102974.22;5034348;28;20041;-81
2021/05/30 03:28:27;;;;;;;15.18;8.38;;;;;;;14.84;57.83;102976.03;5033393;28;20041;-81
2021/05/30 03:30:53;;;;;;;11.23;7.47;;;;;;;14.83;58.06;102976.91;5033467;28;20126;-81
2021/05/30 03:33:20;;;;;;;11.68;8.85;;;;;;;14.83;58.03;102982.25;5033436;28;20025;-81
2021/05/30 03:35:47;;;;;;;14.00;8.68;;;;;;;14.85;57.94;102985.81;5033223;28;20021;-81
2021/05/30 03:38:16;;;;;;;17.38;8.50;;;;;;;14.85;58.11;102985.81;5033951;28;20033;-81
2021/05/30 03:40:47;;;;;;;12.65;8.95;;;;;;;14.86;57.96;102976.88;5033510;28;20025;-81
2021/05/30 03:43:14;;;;;;;13.88;8.45;;;;;;;14.78;57.72;102981.38;5032824;28;20472;-82
2021/05/30 03:45:41;;;;;;;15.18;8.35;;;;;;;14.79;57.52;102984.91;5032932;28;20068;-81
2021/05/30 03:48:08;;;;;;;10.18;7.35;;;;;;;14.76;57.96;102988.50;5033278;28;20032;-81
2021/05/30 03:50:36;;;;;;;12.77;8.38;;;;;;;14.78;57.63;102986.72;5033638;28;20447;-81
2021/05/30 03:53:03;;;;;;;14.32;8.60;;;;;;;14.75;57.41;102986.72;5033223;28;20108;-81
2021/05/30 03:55:30;;;;;;;13.15;8.15;;;;;;;14.68;57.53;102984.97;5033668;28;20025;-80
2021/05/30 03:57:56;;;;;;;11.40;7.78;;;;;;;14.67;57.71;102988.53;5033802;28;20029;-81
2021/05/30 04:00:23;;;;;;;12.60;8.15;;;;;;;14.61;57.66;102981.38;5033329;28;20041;-81
2021/05/30 04:02:49;;;;;;;13.98;9.18;;;;;;;14.62;57.47;102990.28;5033166;28;20109;-81
2021/05/30 04:05:16;;;;;;;14.18;8.25;;;;;;;14.63;57.11;102989.38;5033784;28;20055;-81
2021/05/30 04:07:44;;;;;;;11.18;8.02;;;;;;;14.61;57.03;102985.84;5033124;28;20037;-81
2021/05/30 04:10:12;;;;;;;12.57;8.32;;;;;;;14.61;57.35;102989.38;5033117;28;20018;-81
2021/05/30 04:12:40;;;;;;;12.90;8.55;;;;;;;14.59;57.22;102980.50;5033289;28;20039;-81
2021/05/30 04:15:08;;;;;;;13.65;8.68;;;;;;;14.59;57.20;102984.94;5032210;28;20049;-81
2021/05/30 04:17:35;;;;;;;15.70;9.27;;;;;;;14.55;57.04;102986.72;5048667;28;20038;-81
2021/05/30 04:20:03;;;;;;;10.38;8.20;;;;;;;14.56;56.82;102991.19;5033065;28;20468;-80
2021/05/30 04:22:29;;;;;;;15.52;9.27;;;;;;;14.59;57.03;102992.97;5033826;28;20029;-80
2021/05/30 04:24:56;;;;;;;10.15;8.20;;;;;;;14.52;56.82;102987.63;5033629;28;20026;-82
2021/05/30 04:27:22;;;;;;;11.18;8.90;;;;;;;14.56;57.07;102991.19;5033497;28;20044;-80
2021/05/30 04:29:49;;;;;;;14.63;9.32;;;;;;;14.59;57.00;102984.94;5033033;28;20056;-81
2021/05/30 04:32:15;;;;;;;16.55;8.27;;;;;;;14.61;56.98;102980.50;5033524;28;20485;-81
2021/05/30 04:34:42;;;;;;;12.98;8.52;;;;;;;14.63;56.71;102982.28;5034075;28;20025;-80
2021/05/30 04:37:08;;;;;;;13.70;8.60;;;;;;;14.68;56.42;102977.84;5019133;28;20049;-81
2021/05/30 04:39:34;;;;;;;15.43;7.40;;;;;;;14.72;56.87;102984.06;5033975;28;20025;-81
2021/05/30 04:42:03;;;;;;;12.60;8.80;;;;;;;14.72;56.52;102981.41;5036580;28;20464;-81
2021/05/30 04:44:30;;;;;;;14.98;8.35;;;;;;;14.80;56.43;102979.56;5036823;28;20549;-80
2021/05/30 04:46:56;;;;;;;15.38;8.93;;;;;;;14.84;56.31;102985.78;5036899;28;20504;-81
2021/05/30 04:49:23;;;;;;;13.77;8.75;;;;;;;14.85;56.38;102985.81;5037118;28;20063;-81
2021/05/30 04:51:49;;;;;;;14.50;8.30;;;;;;;14.90;56.33;102985.78;5037033;28;20061;-80
2021/05/30 04:54:15;;;;;;;17.35;8.70;;;;;;;14.97;56.50;102989.31;5037682;28;20098;-80
2021/05/30 04:56:42;;;;;;;12.23;8.43;;;;;;;15.01;56.32;102988.41;5037042;28;20080;-81
2021/05/30 04:59:08;;;;;;;11.30;7.72;;;;;;;15.05;56.24;102990.16;5036447;28;20079;-81
2021/05/30 05:01:35;;;;;;;13.82;9.68;;;;;;;15.10;56.09;102987.47;5037086;28;20480;-81
2021/05/30 05:04:02;;;;;;;14.13;9.02;;;;;;;15.12;55.98;102994.56;5036395;28;20048;-81
2021/05/30 05:06:29;;;;;;;10.73;7.50;;;;;;;15.16;55.80;102996.34;5035979;28;20034;-81
2021/05/30 05:08:55;;;;;;;12.55;8.10;;;;;;;15.22;55.83;102997.22;5036362;28;20033;-82
2021/05/30 05:11:21;;;;;;;13.15;7.28;;;;;;;15.17;56.03;103000.78;5035975;28;20029;-82
2021/05/30 05:13:48;;;;;;;9.40;7.88;;;;;;;15.25;55.95;102991.84;5036190;28;20029;-82
2021/05/30 05:16:14;;;;;;;16.30;8.43;;;;;;;15.23;55.74;102988.28;5036535;28;20549;-80
2021/05/30 05:18:41;;;;;;;15.32;8.07;;;;;;;15.25;55.65;102983.84;5036133;28;20045;-81
2021/05/30 05:21:07;;;;;;;9.80;7.63;;;;;;;15.31;55.38;102986.47;5035959;28;20075;-80
2021/05/30 05:23:34;;;;;;;17.30;9.10;;;;;;;15.32;55.31;102983.78;5035820;28;20033;-82
2021/05/30 05:26:03;;;;;;;11.15;7.35;;;;;;;15.41;55.25;102988.19;5036319;28;20160;-81
2021/05/30 05:28:31;;;;;;;12.27;7.80;;;;;;;15.45;55.16;102981.94;5036274;28;20030;-81
2021/05/30 05:30:58;;;;;;;9.80;7.85;;;;;;;15.44;55.14;102976.59;5034819;28;20101;-82
2021/05/30 05:33:25;;;;;;;11.93;8.43;;;;;;;15.42;55.09;102973.06;5035773;28;20026;-81
2021/05/30 05:35:51;;;;;;;16.13;9.95;;;;;;;15.38;54.84;102977.53;5036321;28;20036;-81
2021/05/30 05:38:18;;;;;;;13.10;8.80;;;;;;;15.37;55.04;102981.09;5036374;28;20033;-83
2021/05/30 05:40:45;;;;;;;10.52;6.88;;;;;;;15.34;55.03;102978.47;5035957;28;20029;-82
2021/05/30 05:43:11;;;;;;;12.30;8.30;;;;;;;15.29;55.02;102972.22;5035703;28;20037;-81
2021/05/30 05:45:38;;;;;;;12.88;8.18;;;;;;;15.33;54.96;102984.69;5035032;28;20021;-82
2021/05/30 05:48:15;;;;;;;12.82;8.20;;;;;;;15.35;54.84;102986.47;5036068;28;20481;-81
2021/05/30 05:50:43;;;;;;;15.00;8.10;;;;;;;15.26;55.14;102973.13;5035196;28;20029;-81
2021/05/30 05:53:11;;;;;;;15.73;8.93;;;;;;;15.19;55.35;102977.63;5035563;28;20453;-81
2021/05/30 05:55:38;;;;;;;13.73;8.45;;;;;;;15.17;55.49;102970.53;5035389;28;20104;-80
2021/05/30 05:58:05;;;;;;;15.05;9.10;;;;;;;15.19;55.40;102982.09;5036199;28;20037;-81
2021/05/30 06:00:32;;;;;;;13.65;9.00;;;;;;;15.11;55.32;102973.22;5035815;28;20033;-80
2021/05/30 06:02:58;;;;;;;12.45;7.80;;;;;;;15.12;55.37;102975.88;5035486;28;20053;-80
2021/05/30 06:05:26;;;;;;;13.48;7.38;;;;;;;15.11;55.47;102967.91;5035554;28;20029;-80
2021/05/30 06:07:54;;;;;;;15.23;9.55;;;;;;;15.07;55.47;102967.03;5035568;28;20345;-80
2021/05/30 06:10:24;;;;;;;12.95;8.85;;;;;;;15.09;55.38;102969.69;5034858;28;20033;-81
2021/05/30 06:12:52;;;;;;;13.25;8.88;;;;;;;15.03;55.94;102973.28;5035829;28;20036;-81
2021/05/30 06:15:20;;;;;;;13.23;8.75;;;;;;;15.10;55.87;102969.66;5035441;28;20030;-81
2021/05/30 06:17:53;;;;;;;15.30;9.38;;;;;;;15.15;55.83;102965.22;5034758;28;20030;-81
2021/05/30 06:20:20;;;;;;;13.98;8.30;;;;;;;15.23;55.80;102969.59;5035423;28;20033;-81
2021/05/30 06:22:47;;;;;;;13.57;8.70;;;;;;;15.20;55.98;102967.84;5034912;28;20033;-80
2021/05/30 06:25:13;;;;;;;13.95;9.30;;;;;;;15.19;55.74;102966.97;5034913;28;20033;-81
2021/05/30 06:27:40;;;;;;;15.85;9.50;;;;;;;15.24;55.64;102971.38;5035186;28;20412;-81
2021/05/30 06:30:07;;;;;;;16.48;9.90;;;;;;;15.16;55.67;102977.63;5034696;28;20036;-81
2021/05/30 06:32:35;;;;;;;15.45;8.85;;;;;;;15.33;55.25;102976.69;5034870;28;20029;-81
2021/05/30 06:35:03;;;;;;;15.57;9.60;;;;;;;15.32;55.40;102977.56;5034793;28;20554;-81
2021/05/30 06:37:29;;;;;;;18.02;9.98;;;;;;;15.33;55.70;102984.69;5035529;28;20052;-80
2021/05/30 06:39:55;;;;;;;14.25;9.85;;;;;;;15.35;55.86;102982.88;5034390;28;20045;-81
2021/05/30 06:42:22;;;;;;;17.13;9.80;;;;;;;15.44;55.75;102982.84;5035234;28;20021;-81
2021/05/30 06:44:48;;;;;;;14.35;9.98;;;;;;;15.43;55.73;102975.72;5035075;28;20030;-81
2021/05/30 06:47:15;;;;;;;15.77;10.07;;;;;;;15.51;55.63;102986.34;5034452;28;20030;-81
2021/05/30 06:49:41;;;;;;;16.90;10.73;;;;;;;15.58;55.54;102984.53;5034355;28;20037;-81
2021/05/30 06:52:07;;;;;;;15.43;10.80;;;;;;;15.60;55.80;102988.06;5034229;28;20029;-81
2021/05/30 06:54:34;;;;;;;13.07;9.48;;;;;;;15.68;55.54;102983.56;5035065;28;20072;-81
2021/05/30 06:57:00;;;;;;;14.48;9.95;;;;;;;15.72;55.36;102982.66;5034529;28;20454;-80
2021/05/30 06:59:27;;;;;;;15.50;10.80;;;;;;;15.73;55.72;102989.78;5033997;28;20458;-81
2021/05/30 07:01:54;;;;;;;14.82;9.82;;;;;;;15.75;55.82;102987.97;5033137;28;20464;-81
2021/05/30 07:04:22;;;;;;;22.58;11.23;;;;;;;15.82;55.78;102992.38;5033862;28;20033;-81
2021/05/30 07:06:49;;;;;;;17.00;11.00;;;;;;;15.89;55.69;102984.31;5034243;28;20038;-80
2021/05/30 07:09:15;;;;;;;16.70;9.50;;;;;;;15.98;55.29;102977.13;5034370;28;20040;-81
2021/05/30 07:11:41;;;;;;;15.18;10.13;;;;;;;16.07;55.43;102976.16;5034001;28;20091;-81
2021/05/30 07:14:08;;;;;;;17.83;10.25;;;;;;;16.17;55.40;102975.19;5034014;28;20040;-81
2021/05/30 07:16:34;;;;;;;18.40;10.32;;;;;;;16.23;55.17;102981.38;5033951;28;20025;-81
2021/05/30 07:19:00;;;;;;;18.40;10.52;;;;;;;16.31;55.17;102976.81;5034025;28;20053;-81
2021/05/30 07:21:26;;;;;;;15.95;10.20;;;;;;;16.40;54.78;102981.19;5033934;28;20124;-82
2021/05/30 07:23:52;;;;;;;18.75;9.85;;;;;;;16.45;54.94;102980.25;5033568;28;20040;-81
2021/05/30 07:26:19;;;;;;;17.05;10.95;;;;;;;16.55;54.97;102980.13;5033609;28;20029;-81
2021/05/30 07:28:45;;;;;;;18.13;10.65;;;;;;;16.57;54.97;102968.50;5033638;28;20025;-81
2021/05/30 07:31:15;;;;;;;15.10;9.90;;;;;;;16.69;54.70;102972.84;5032702;28;20434;-81
2021/05/30 07:33:41;;;;;;;13.60;9.20;;;;;;;16.74;54.79;102971.00;5033210;28;20143;-81
2021/05/30 07:36:07;;;;;;;17.70;11.30;;;;;;;16.78;54.96;102972.72;5033421;28;20234;-82
2021/05/30 07:38:34;;;;;;;17.05;11.32;;;;;;;16.81;54.63;102975.38;5033270;28;20034;-81
2021/05/30 07:41:01;;;;;;;22.77;11.38;;;;;;;16.95;54.54;102972.56;5032099;28;20052;-81
2021/05/30 07:43:28;;;;;;;15.88;10.32;;;;;;;17.02;54.26;102981.41;5033233;28;20036;-80
2021/05/30 07:45:54;;;;;;;18.50;10.30;;;;;;;17.16;53.99;102983.00;5033580;28;20026;-81
2021/05/30 07:48:21;;;;;;;16.08;10.38;;;;;;;17.19;54.31;102988.34;5033260;28;20595;-81
2021/05/30 07:50:48;;;;;;;19.55;11.55;;;;;;;17.28;54.27;102985.53;5033259;28;20070;-80
2021/05/30 07:53:14;;;;;;;19.58;11.57;;;;;;;17.38;54.12;102983.59;5033289;28;20132;-80
2021/05/30 07:55:42;;;;;;;17.52;10.40;;;;;;;17.55;53.57;102986.03;5032807;28;20094;-81
2021/05/30 07:58:08;;;;;;;16.20;10.63;;;;;;;17.59;53.78;102977.91;5032918;28;20479;-81
2021/05/30 08:00:35;;;;;;;16.58;10.73;;;;;;;17.73;53.82;102985.75;5033322;28;20036;-81
2021/05/30 08:03:02;;;;;;;14.48;9.25;;;;;;;17.85;53.67;102975.75;5033357;28;20484;-81
2021/05/30 08:05:28;;;;;;;15.75;11.23;;;;;;;17.86;53.28;102977.53;5033693;28;20540;-80
2021/05/30 08:07:55;;;;;;;16.00;9.95;;;;;;;17.98;53.18;102976.44;5033322;28;20040;-81
2021/05/30 08:10:24;;;;;;;17.25;10.80;;;;;;;18.10;52.95;102971.75;5032930;28;20544;-81
2021/05/30 08:12:50;;;;;;;17.25;10.60;;;;;;;18.22;52.82;102981.38;5033238;28;20026;-81
2021/05/30 08:15:17;;;;;;;16.75;9.98;;;;;;;18.31;52.86;102979.47;5032761;28;20037;-81
2021/05/30 08:17:45;;;;;;;14.55;11.05;;;;;;;18.33;52.55;102975.81;5032759;28;20029;-80
2021/05/30 08:20:13;;;;;;;17.35;11.68;;;;;;;18.40;52.18;102972.09;5033020;28;20030;-80
2021/05/30 08:22:40;;;;;;;19.58;11.15;;;;;;;18.45;51.97;102973.81;5032179;28;20028;-80
2021/05/30 08:25:07;;;;;;;16.95;10.77;;;;;;;18.51;52.01;102963.84;5033356;28;20396;-80
2021/05/30 08:27:33;;;;;;;15.45;10.63;;;;;;;18.61;51.84;102959.19;5033935;28;20040;-80
2021/05/30 08:30:01;;;;;;;17.75;11.18;;;;;;;18.68;52.39;102951.88;5032836;28;20472;-80
2021/05/30 08:32:27;;;;;;;16.85;11.25;;;;;;;18.76;52.15;102956.16;5031734;28;20540;-80
2021/05/30 08:34:53;;;;;;;18.13;11.05;;;;;;;18.89;51.61;102959.50;5032769;28;20036;-80
2021/05/30 08:37:20;;;;;;;17.67;10.05;;;;;;;18.95;51.53;102958.50;5033302;28;20040;-80
2021/05/30 08:39:47;;;;;;;16.67;11.50;;;;;;;19.07;51.42;102962.72;5033033;28;20037;-80
2021/05/30 08:42:14;;;;;;;15.80;10.52;;;;;;;19.18;51.47;102958.00;5032588;28;20021;-80
2021/05/30 08:44:40;;;;;;;19.17;11.32;;;;;;;19.23;51.50;102963.28;5032700;28;20033;-82
2021/05/30 08:47:06;;;;;;;17.67;11.07;;;;;;;19.37;51.08;102961.13;5032968;28;20053;-80
2021/05/30 08:49:32;;;;;;;15.05;9.98;;;;;;;19.48;51.09;102960.91;5032820;28;20119;-79
2021/05/30 08:51:59;;;;;;;14.95;9.07;;;;;;;19.61;50.76;102964.16;5032847;28;20033;-79
2021/05/30 08:54:25;;;;;;;17.50;10.52;;;;;;;19.59;50.44;102959.75;5033055;28;20040;-80
2021/05/30 08:56:51;;;;;;;14.82;10.32;;;;;;;19.78;50.10;102970.94;5033329;28;20083;-80
2021/05/30 08:59:30;;;;;;;17.10;10.90;;;;;;;19.89;50.14;102968.91;5033390;28;20037;-80
2021/05/30 09:01:58;;;;;;;19.15;10.40;;;;;;;20.06;49.97;102954.13;5032851;28;20037;-79
2021/05/30 09:07:47;;;;;;;17.27;10.05;;;;;;;20.36;49.67;102958.69;5110409;27;20400;-81
2021/05/30 09:10:15;;;;;;;15.77;10.63;;;;;;;20.34;49.16;102965.91;5110776;28;20494;-80
2021/05/30 09:12:42;;;;;;;16.45;9.52;;;;;;;20.49;49.14;102953.81;5110664;28;20028;-80
2021/05/30 09:15:48;;;;;;;17.13;10.32;;;;;;;20.55;49.13;102954.56;5110901;28;20020;-81
2021/05/30 09:18:17;;;;;;;12.88;9.98;;;;;;;20.62;48.83;102957.06;5110795;28;20110;-80
2021/05/30 09:21:05;;;;;;;16.77;10.35;;;;;;;20.83;48.66;102958.25;5110871;28;20474;-80
2021/05/30 09:29:05;;;;;;;18.55;11.18;;;;;;;21.08;47.56;102943.16;5082052;28;20389;-81
2021/05/30 09:31:33;;;;;;;14.10;9.82;;;;;;;21.16;47.86;102954.59;5065181;28;20026;-81
2021/05/30 09:33:59;;;;;;;13.55;9.70;;;;;;;21.30;47.63;102951.47;5050652;28;20036;-81
2021/05/30 09:36:25;;;;;;;17.70;10.98;;;;;;;21.34;47.25;102948.59;5050654;28;20488;-81
2021/05/30 09:39:07;;;;;;;11.45;9.18;;;;;;;21.62;47.28;102947.75;5050490;28;20361;-81
2021/05/30 09:41:33;;;;;;;14.60;9.90;;;;;;;21.56;47.11;102942.56;5050022;28;20369;-81
2021/05/30 09:43:59;;;;;;;14.38;9.18;;;;;;;21.66;46.76;102937.75;5050138;28;20025;-81
2021/05/30 09:46:34;;;;;;;15.27;8.68;;;;;;;21.85;46.96;102945.22;5050209;28;20069;-81
2021/05/30 09:49:00;;;;;;;12.55;9.50;;;;;;;21.87;46.69;102948.72;5050186;28;20021;-81
2021/05/30 09:56:52;;;;;;;13.07;8.68;;;;;;;22.23;46.42;102938.47;5069910;28;20750;-81
2021/05/30 09:59:20;;;;;;;13.27;8.65;;;;;;;22.46;45.71;102939.47;5070419;28;20033;-81
2021/05/30 10:01:50;;;;;;;11.13;7.85;;;;;;;22.60;45.07;102937.16;5070500;28;20029;-81
2021/05/30 10:04:17;;;;;;;14.05;9.30;;;;;;;22.71;45.15;102933.16;5070287;28;20028;-81
2021/05/30 10:06:44;;;;;;;16.27;9.55;;;;;;;22.89;44.47;102932.44;5070152;28;20028;-81
2021/05/30 10:09:12;;;;;;;14.85;8.77;;;;;;;23.00;44.55;102933.84;5070591;28;20028;-81
2021/05/30 10:11:39;;;;;;;12.73;8.13;;;;;;;23.13;44.64;102931.50;5070111;28;20446;-81
2021/05/30 10:14:06;;;;;;;13.35;8.43;;;;;;;23.22;44.43;102932.06;5070368;28;20033;-82
2021/05/30 10:16:33;;;;;;;13.90;9.50;;;;;;;23.33;44.11;102931.63;5069836;28;20025;-81
2021/05/30 10:19:05;;;;;;;12.75;8.57;;;;;;;23.43;43.53;102933.00;5070009;28;20033;-82
2021/05/30 10:21:32;;;;;;;13.75;9.02;;;;;;;23.50;42.48;102928.22;5070953;28;20016;-81
2021/05/30 10:23:59;;;;;;;10.38;7.90;;;;;;;23.47;42.20;102927.47;5070652;28;20097;-81
2021/05/30 10:26:26;;;;;;;14.48;8.30;;;;;;;23.48;42.21;102922.00;5070720;28;20025;-81
2021/05/30 10:28:59;;;;;;;9.82;8.00;;;;;;;23.47;41.99;102925.63;5070140;28;20036;-81
2021/05/30 10:31:28;;;;;;;9.77;6.68;;;;;;;23.44;42.56;102925.78;5069908;28;20112;-81
2021/05/30 10:34:17;;;;;;;10.35;8.50;;;;;;;23.66;41.54;102927.56;5068352;28;20396;-81
2021/05/30 10:39:37;;;;;;;12.13;8.20;;;;;;;23.74;42.03;102920.03;5067186;27;20421;-81
2021/05/30 10:50:35;;;;;;;9.85;7.30;;;;;;;24.30;39.82;102898.63;5072885;27;20893;-80
2021/05/30 10:53:02;;;;;;;11.65;7.88;;;;;;;24.32;40.05;102899.44;5066222;28;20079;-81
2021/05/30 10:55:30;;;;;;;9.52;7.20;;;;;;;24.31;38.60;102897.69;5050362;28;20392;-81
2021/05/30 10:57:57;;;;;;;13.07;8.07;;;;;;;24.25;38.89;102896.16;5051119;28;20029;-81
2021/05/30 11:16:44;;;;;;;10.80;8.43;;;;;;;24.80;36.66;102875.53;5111231;27;20830;-81
2021/05/30 11:19:15;;;;;;;10.45;7.10;;;;;;;24.84;35.88;102864.50;5111353;28;20036;-81
2021/05/30 11:21:44;;;;;;;7.68;6.00;;;;;;;24.99;35.79;102868.28;5110839;28;20044;-80
2021/05/30 11:24:15;;;;;;;10.52;6.68;;;;;;;25.18;35.64;102861.94;5111202;28;20474;-80
2021/05/30 11:26:59;;;;;;;10.20;7.43;;;;;;;25.44;35.25;102857.94;5111854;28;20030;-80
2021/05/30 11:29:27;;;;;;;10.73;9.30;;;;;;;25.31;35.55;102860.38;5111125;28;20031;-80
2021/05/30 11:31:54;;;;;;;14.60;9.52;;;;;;;25.35;35.94;102852.97;5111402;28;20016;-80
2021/05/30 11:34:21;;;;;;;13.57;9.27;;;;;;;25.37;36.46;102845.63;5111419;28;20547;-80
2021/05/30 11:36:48;;;;;;;10.15;8.18;;;;;;;25.52;36.22;102844.84;5110538;28;20027;-80
2021/05/30 11:41:56;;;;;;;9.90;7.72;;;;;;;25.67;34.99;102836.84;5065705;27;20819;-80
2021/05/30 11:44:25;;;;;;;10.02;7.32;;;;;;;25.62;36.01;102841.66;5050830;28;20037;-79
2021/05/30 11:49:33;;;;;;;11.73;8.15;;;;;;;25.83;34.85;102826.97;5071283;28;20532;-81
2021/05/30 11:54:50;;;;;;;8.82;7.55;;;;;;;26.09;34.57;102832.81;5067174;27;20398;-81
2021/05/30 11:57:19;;;;;;;12.25;6.25;;;;;;;26.24;34.67;102824.81;5067202;28;20032;-82
2021/05/30 11:59:54;;;;;;;6.90;6.20;;;;;;;26.25;35.38;102826.56;5067835;28;20029;-82
2021/05/30 12:02:45;;;;;;;9.05;6.60;;;;;;;26.51;32.73;102826.97;5067460;28;20017;-81
2021/05/30 12:07:54;;;;;;;10.73;6.50;;;;;;;26.71;33.37;102825.81;5073087;27;20441;-81
2021/05/30 12:10:20;;;;;;;10.20;5.95;;;;;;;26.68;33.19;102817.81;5071189;28;20033;-81